Time;durP1;ratioP1;P1;durP2;ratioP2;P2;SDS_P1;SDS_P2;PMS_P1;PMS_P2;Temp;Humidity;BMP_temperature;BMP_pressure;BME280_temperature;BME280_humidity;BME280_pressure;Samples;Min_cycle;Max_cycle;Signal;HPM_P1;HPM_P2
2022/08/18 07:02:47;;;;;;;8.02;5.82;;;;;;;20.37;74.66;96262.31;2083730;28;20560;-65
2022/08/18 07:03:55;;;;;;;11.20;6.95;;;;;;;20.28;75.38;96250.72;2076495;28;20206;-65
2022/08/18 07:05:19;;;;;;;9.05;5.93;;;;;;;20.23;74.91;96250.31;2076420;28;20190;-65
2022/08/18 07:06:20;;;;;;;8.90;5.95;;;;;;;20.32;75.18;96253.94;2071901;28;20194;-65
2022/08/18 07:07:33;;;;;;;8.68;6.50;;;;;;;20.38;75.08;96256.03;2069288;28;20827;-66
2022/08/18 07:08:43;;;;;;;8.32;6.30;;;;;;;20.34;74.99;96259.94;2067184;28;20203;-66
2022/08/18 07:09:46;;;;;;;8.48;5.88;;;;;;;20.38;74.80;96264.00;2066375;28;20688;-65
2022/08/18 07:10:51;;;;;;;8.65;6.15;;;;;;;20.41;74.68;96258.41;2067231;28;20199;-66
2022/08/18 07:12:06;;;;;;;15.90;6.65;;;;;;;20.25;75.73;96266.06;2067828;28;20698;-65
2022/08/18 08:34:10;;;;;;;14.93;9.55;;;;;;;19.48;80.76;96293.03;2087262;28;20552;-67
2022/08/18 08:35:18;;;;;;;17.08;9.32;;;;;;;19.53;79.91;96292.63;2084237;28;20201;-67
2022/08/18 08:36:43;;;;;;;14.45;9.10;;;;;;;19.62;79.67;96298.91;2076699;28;20241;-67
2022/08/18 08:37:58;;;;;;;11.68;9.15;;;;;;;19.69;79.39;96290.34;2071929;28;20210;-67
2022/08/18 08:39:30;;;;;;;13.75;8.90;;;;;;;19.72;79.04;96287.41;2077585;28;20209;-67
2022/08/18 08:56:13;;;;;;;15.23;9.73;;;;;;;20.23;77.17;96282.13;2102400;27;20559;-65
2022/08/18 08:57:16;;;;;;;16.25;8.88;;;;;;;20.45;76.22;96281.00;2097689;28;20231;-65
2022/08/18 08:58:32;;;;;;;15.48;9.45;;;;;;;20.62;75.99;96297.19;2096933;28;20196;-65
2022/08/18 08:59:35;;;;;;;15.65;8.95;;;;;;;20.45;76.41;96301.41;2102467;28;20202;-65
2022/08/18 09:00:41;;;;;;;11.40;9.65;;;;;;;20.51;76.50;96296.38;2097428;28;20227;-65
2022/08/18 09:01:57;;;;;;;14.70;9.57;;;;;;;20.26;77.04;96303.03;2095873;28;20235;-65
2022/08/18 09:03:23;;;;;;;10.90;9.02;;;;;;;20.53;76.17;96306.81;2094239;28;20192;-66
2022/08/18 09:04:46;;;;;;;14.05;8.85;;;;;;;20.70;75.47;96306.16;2092513;28;20193;-65
2022/08/18 09:06:28;;;;;;;13.88;9.27;;;;;;;20.96;74.92;96297.66;2099050;28;20196;-66
2022/08/18 09:07:48;;;;;;;14.35;8.20;;;;;;;21.11;73.98;96291.91;2098897;28;20686;-66
2022/08/18 09:09:08;;;;;;;14.38;8.75;;;;;;;21.24;73.77;96280.97;2098665;28;20645;-65
2022/08/18 09:10:25;;;;;;;19.40;9.63;;;;;;;20.86;74.69;96271.13;2099491;28;20210;-65
2022/08/18 09:11:51;;;;;;;19.83;9.50;;;;;;;20.96;74.53;96263.16;2098570;28;20696;-65
2022/08/18 09:13:20;;;;;;;18.15;9.18;;;;;;;21.34;73.92;96252.56;2098765;28;20594;-65
2022/08/18 09:14:40;;;;;;;12.25;7.82;;;;;;;21.88;72.37;96241.28;2098483;28;20703;-65
2022/08/18 09:16:07;;;;;;;12.40;8.80;;;;;;;22.65;69.93;96236.41;2098150;28;20662;-67
2022/08/18 09:17:49;;;;;;;13.77;8.55;;;;;;;23.06;68.15;96235.88;2092572;28;20233;-67
2022/08/18 09:19:20;;;;;;;14.48;8.75;;;;;;;23.26;66.77;96231.19;2090923;28;20197;-67
2022/08/18 09:20:48;;;;;;;14.45;7.45;;;;;;;23.95;65.86;96232.03;2090707;28;20258;-67
2022/08/18 09:21:59;;;;;;;13.25;8.82;;;;;;;24.13;63.04;96212.41;2088408;28;20225;-67
2022/08/18 09:23:24;;;;;;;22.85;8.52;;;;;;;24.01;64.14;96221.69;2090509;28;20196;-67
2022/08/18 09:24:38;;;;;;;19.88;7.68;;;;;;;24.02;64.07;96232.19;2090796;28;20203;-67
2022/08/18 09:25:42;;;;;;;14.38;7.93;;;;;;;23.99;64.14;96239.72;2091752;28;20211;-67
2022/08/18 09:26:51;;;;;;;10.82;8.05;;;;;;;24.15;63.40;96239.75;2092089;28;20228;-67
2022/08/18 09:28:11;;;;;;;16.08;8.70;;;;;;;24.48;62.62;96252.28;2092581;28;20207;-67
2022/08/18 09:29:22;;;;;;;11.40;8.00;;;;;;;24.92;61.57;96252.84;2091944;28;20257;-67
2022/08/18 09:30:41;;;;;;;9.98;7.95;;;;;;;25.08;60.83;96257.31;2089450;28;20233;-67
2022/08/18 09:31:45;;;;;;;11.27;8.10;;;;;;;25.10;60.80;96236.63;2099203;28;20228;-67
2022/08/18 09:33:13;;;;;;;13.27;7.55;;;;;;;24.86;61.49;96252.66;2099000;28;20194;-67
2022/08/18 09:35:02;;;;;;;28.88;8.15;;;;;;;25.48;60.13;96251.25;2086867;28;20218;-67
2022/08/18 09:36:34;;;;;;;14.23;7.70;;;;;;;25.40;59.69;96250.28;2088536;28;20694;-66
2022/08/18 09:37:39;;;;;;;11.73;8.13;;;;;;;25.41;59.20;96251.94;2088819;28;20222;-67
2022/08/18 09:42:29;;;;;;;9.95;7.55;;;;;;;24.15;63.14;96261.09;2091530;28;20218;-66
2022/08/18 09:43:51;;;;;;;15.70;7.88;;;;;;;24.26;62.65;96268.78;2087979;28;20295;-66
2022/08/18 09:44:53;;;;;;;17.20;6.65;;;;;;;24.21;62.96;96275.59;2090249;28;20195;-66
2022/08/18 09:45:56;;;;;;;14.52;7.60;;;;;;;24.00;64.06;96274.22;2091095;28;20199;-66
2022/08/18 09:47:00;;;;;;;13.10;7.90;;;;;;;24.25;62.95;96272.44;2090640;28;20817;-66
2022/08/18 09:48:04;;;;;;;15.25;8.82;;;;;;;24.56;62.19;96277.16;2090053;28;20199;-66
2022/08/18 09:49:23;;;;;;;11.90;7.22;;;;;;;24.38;62.64;96277.31;2091049;28;20192;-67
2022/08/18 09:50:27;;;;;;;18.02;7.70;;;;;;;24.12;63.45;96277.41;2087486;28;20254;-67
2022/08/18 09:51:36;;;;;;;16.00;8.60;;;;;;;24.17;63.34;96287.59;2089782;28;20260;-67
2022/08/18 09:52:41;;;;;;;11.27;8.25;;;;;;;24.03;63.37;96283.72;2090355;28;20203;-67
2022/08/18 09:53:44;;;;;;;23.42;9.73;;;;;;;24.42;62.24;96283.16;2092079;28;20215;-67
2022/08/18 09:54:58;;;;;;;21.48;8.05;;;;;;;24.51;62.06;96284.00;2091442;28;20197;-66
2022/08/18 09:55:59;;;;;;;17.42;7.80;;;;;;;24.07;62.79;96285.06;2082422;28;20286;-67
2022/08/18 09:57:16;;;;;;;18.48;9.52;;;;;;;23.88;63.84;96284.28;2084051;28;20238;-66
2022/08/18 09:58:51;;;;;;;11.95;9.32;;;;;;;23.59;64.75;96279.31;2089231;28;20249;-66
2022/08/18 10:00:02;;;;;;;12.73;9.30;;;;;;;22.81;67.35;96280.97;2092906;28;20200;-68
2022/08/18 10:18:23;;;;;;;15.23;8.80;;;;;;;22.99;67.15;96272.94;2085036;28;20573;-67
2022/08/18 10:19:51;;;;;;;16.00;9.57;;;;;;;22.99;67.75;96268.47;2079443;28;20197;-67
2022/08/18 10:21:27;;;;;;;13.05;9.00;;;;;;;23.25;65.92;96270.31;2077994;28;20202;-65
2022/08/18 10:22:38;;;;;;;12.40;8.60;;;;;;;23.02;66.83;96269.97;2069867;28;20197;-66
2022/08/18 10:23:47;;;;;;;15.20;9.80;;;;;;;23.31;66.40;96272.38;2063552;28;20199;-65
2022/08/18 10:25:12;;;;;;;12.30;8.60;;;;;;;23.54;65.34;96263.84;2070110;28;20205;-66
2022/08/18 10:26:29;;;;;;;11.88;9.75;;;;;;;23.53;65.01;96269.28;2070488;28;20288;-65
2022/08/18 10:27:53;;;;;;;11.88;8.68;;;;;;;23.66;65.01;96258.22;2071468;28;20198;-66
2022/08/18 10:28:54;;;;;;;12.40;8.82;;;;;;;23.89;63.88;96261.97;2071430;28;20202;-66
2022/08/18 10:29:58;;;;;;;10.63;8.45;;;;;;;23.84;64.05;96256.28;2071262;28;20238;-66
2022/08/18 10:31:05;;;;;;;14.85;9.25;;;;;;;23.80;64.39;96246.94;2065662;28;20208;-65
2022/08/18 10:32:14;;;;;;;12.25;9.55;;;;;;;23.96;63.75;96240.88;2066540;28;20294;-66
2022/08/18 10:33:54;;;;;;;14.38;8.50;;;;;;;23.80;64.10;96238.94;2070987;28;20558;-65
2022/08/18 10:34:56;;;;;;;11.80;9.68;;;;;;;23.94;63.45;96237.53;2071089;28;20584;-66
2022/08/18 10:35:59;;;;;;;11.95;9.35;;;;;;;24.06;63.79;96238.06;2070712;28;20549;-64
2022/08/18 10:37:17;;;;;;;15.35;9.30;;;;;;;23.56;64.82;96234.34;2070539;28;20233;-65
2022/08/18 10:38:27;;;;;;;11.60;9.10;;;;;;;24.23;63.80;96222.94;2071008;28;20217;-65
2022/08/18 10:39:38;;;;;;;11.95;9.60;;;;;;;24.36;62.79;96222.44;2069507;28;20214;-66
2022/08/18 10:41:07;;;;;;;16.92;9.63;;;;;;;24.65;61.79;96235.31;2070647;28;20233;-67
2022/08/18 10:42:33;;;;;;;21.15;9.52;;;;;;;24.72;61.80;96224.81;2070806;28;20253;-68
2022/08/18 10:43:42;;;;;;;14.40;9.30;;;;;;;24.72;61.68;96230.16;2070718;28;20287;-67
2022/08/18 10:45:08;;;;;;;16.75;10.23;;;;;;;24.66;61.77;96223.66;2070305;28;20294;-67
2022/08/18 10:46:22;;;;;;;10.95;8.23;;;;;;;24.28;62.34;96233.94;2068539;28;20230;-67
2022/08/18 10:47:29;;;;;;;12.90;9.35;;;;;;;24.56;62.24;96234.47;2070919;28;20210;-67
2022/08/18 10:48:34;;;;;;;15.55;8.18;;;;;;;24.47;62.33;96232.78;2070809;28;20256;-68
2022/08/18 10:49:40;;;;;;;14.00;8.57;;;;;;;24.35;62.51;96226.94;2070550;28;20331;-67
2022/08/18 10:50:58;;;;;;;11.93;8.55;;;;;;;24.03;63.27;96241.88;2070523;28;20196;-67
2022/08/18 10:52:15;;;;;;;15.93;9.52;;;;;;;23.83;64.06;96233.28;2070405;28;20223;-68
2022/08/18 10:53:29;;;;;;;13.43;8.55;;;;;;;24.18;63.00;96225.25;2068970;28;20888;-68
2022/08/18 10:55:06;;;;;;;14.48;8.90;;;;;;;24.88;60.79;96238.16;2070576;28;20530;-68
2022/08/18 10:56:19;;;;;;;10.50;8.85;;;;;;;25.40;59.48;96231.56;2068809;28;20201;-66
2022/08/18 10:57:45;;;;;;;11.05;9.68;;;;;;;25.70;58.53;96223.78;2070897;28;20208;-66
2022/08/18 10:59:03;;;;;;;12.35;9.45;;;;;;;25.88;58.04;96212.00;2070585;28;20209;-68
2022/08/18 11:00:12;;;;;;;13.15;9.02;;;;;;;25.77;58.24;96210.56;2070384;28;20197;-67
2022/08/18 11:01:26;;;;;;;15.20;8.70;;;;;;;25.86;57.89;96214.84;2070597;28;20228;-68
2022/08/18 11:03:07;;;;;;;10.93;7.68;;;;;;;25.30;58.49;96214.06;2070866;28;20251;-68
2022/08/18 11:04:50;;;;;;;11.18;7.88;;;;;;;24.68;60.56;96215.47;2069372;28;20630;-68
2022/08/18 11:06:03;;;;;;;17.70;9.20;;;;;;;24.65;60.54;96194.47;2069128;28;20198;-68
2022/08/18 11:07:20;;;;;;;21.77;9.27;;;;;;;25.08;59.54;96208.44;2069002;28;20230;-68
2022/08/18 11:08:23;;;;;;;10.73;7.95;;;;;;;25.23;59.19;96209.38;2069956;28;20197;-68
2022/08/18 11:09:29;;;;;;;13.30;8.32;;;;;;;25.43;58.14;96214.34;2070859;28;20205;-66
2022/08/18 11:10:47;;;;;;;14.27;8.40;;;;;;;25.77;57.56;96215.91;2070568;28;20218;-68
2022/08/18 11:12:12;;;;;;;12.75;9.85;;;;;;;26.20;56.37;96200.31;2070685;28;20252;-68
2022/08/18 11:13:14;;;;;;;14.25;8.68;;;;;;;26.20;56.56;96221.69;2070873;28;20248;-68
2022/08/18 11:14:25;;;;;;;13.77;8.52;;;;;;;26.63;55.25;96215.88;2070506;28;20645;-68
2022/08/18 11:15:42;;;;;;;22.55;10.80;;;;;;;26.83;56.07;96215.41;2078044;28;20194;-69
2022/08/18 11:17:08;;;;;;;13.38;9.82;;;;;;;27.10;54.35;96218.53;2071676;28;20268;-68
2022/08/18 11:18:32;;;;;;;13.85;10.23;;;;;;;26.49;55.26;96216.69;2068843;28;20234;-68
2022/08/18 11:19:45;;;;;;;12.75;8.50;;;;;;;26.43;55.52;96215.53;2078559;28;20293;-68
2022/08/18 11:20:52;;;;;;;11.18;8.73;;;;;;;27.14;53.85;96212.59;2075621;28;20557;-69
2022/08/18 11:21:54;;;;;;;21.83;8.82;;;;;;;26.60;55.06;96215.41;2068199;28;20734;-69
2022/08/18 11:22:59;;;;;;;16.65;9.07;;;;;;;26.44;54.95;96217.22;2072169;28;20198;-68
2022/08/18 11:24:10;;;;;;;17.13;9.27;;;;;;;26.95;54.27;96223.84;2071771;28;20175;-69
2022/08/18 11:25:35;;;;;;;30.13;8.68;;;;;;;26.58;54.40;96217.44;2069048;28;20203;-68
2022/08/18 11:26:44;;;;;;;11.15;7.90;;;;;;;26.58;53.92;96215.59;2070345;28;20226;-68
2022/08/18 11:27:55;;;;;;;18.05;8.30;;;;;;;26.50;54.17;96218.31;2071017;28;20198;-68
2022/08/18 11:28:56;;;;;;;13.98;8.05;;;;;;;27.17;52.74;96217.59;2068984;28;20199;-68
2022/08/18 11:30:00;;;;;;;24.85;8.20;;;;;;;27.57;51.91;96219.22;2066214;28;20199;-68
2022/08/18 11:31:02;;;;;;;14.00;8.10;;;;;;;27.84;50.90;96221.19;2065278;28;20562;-69
2022/08/18 11:32:25;;;;;;;10.20;7.30;;;;;;;27.68;50.94;96224.09;2064866;28;20858;-69
2022/08/18 11:33:27;;;;;;;12.35;7.90;;;;;;;27.41;51.59;96225.59;2065349;28;20195;-68
2022/08/18 11:34:36;;;;;;;17.35;8.85;;;;;;;27.55;51.06;96214.03;2065218;28;20214;-68
2022/08/18 11:35:50;;;;;;;11.55;6.93;;;;;;;28.12;50.36;96223.19;2065215;28;20555;-67
2022/08/18 11:37:01;;;;;;;11.05;8.25;;;;;;;27.67;50.29;96214.41;2064945;28;20712;-67
2022/08/18 11:38:12;;;;;;;10.75;8.27;;;;;;;27.89;50.42;96209.09;2064403;28;20218;-68
2022/08/18 11:39:21;;;;;;;19.58;8.45;;;;;;;28.48;49.91;96203.56;2064796;28;20260;-67
2022/08/18 11:40:43;;;;;;;12.05;7.30;;;;;;;28.33;49.81;96208.97;2065264;28;20203;-67
2022/08/18 11:42:08;;;;;;;15.93;10.23;;;;;;;28.02;50.27;96206.53;2062890;28;20219;-67
2022/08/18 11:43:30;;;;;;;19.60;10.82;;;;;;;27.59;51.30;96199.25;2064934;28;20244;-67
2022/08/18 11:44:42;;;;;;;13.00;10.20;;;;;;;27.64;51.24;96199.53;2064471;28;20207;-67
2022/08/18 11:45:45;;;;;;;23.33;14.65;;;;;;;27.46;51.29;96199.06;2065202;28;20206;-67
2022/08/18 11:46:47;;;;;;;13.30;8.43;;;;;;;27.62;50.75;96208.75;2064761;28;20286;-67
2022/08/18 11:48:14;;;;;;;9.55;6.90;;;;;;;28.01;50.45;96203.03;2064743;28;20203;-65
2022/08/18 11:49:32;;;;;;;13.00;7.63;;;;;;;28.26;50.30;96194.66;2065249;28;20206;-66
2022/08/18 11:50:46;;;;;;;10.10;7.13;;;;;;;28.67;49.34;96193.19;2071872;28;20269;-68
2022/08/18 11:51:58;;;;;;;12.05;7.35;;;;;;;29.22;48.30;96200.66;2069271;28;20258;-68
2022/08/18 11:53:24;;;;;;;10.45;7.38;;;;;;;29.80;47.06;96195.81;2064868;28;20207;-67
2022/08/18 11:54:41;;;;;;;15.85;7.90;;;;;;;29.61;47.04;96196.53;2064759;28;20385;-69
2022/08/18 11:56:12;;;;;;;13.15;8.15;;;;;;;29.25;47.27;96201.06;2065024;28;20589;-68
2022/08/18 11:57:40;;;;;;;12.75;8.73;;;;;;;29.48;47.05;96189.25;2063893;28;20215;-68
2022/08/18 11:59:03;;;;;;;10.43;7.43;;;;;;;29.28;47.36;96195.34;2065193;28;20242;-68
2022/08/18 12:00:36;;;;;;;16.83;8.15;;;;;;;29.44;47.51;96187.97;2065164;28;20249;-67
2022/08/18 12:01:58;;;;;;;13.07;8.10;;;;;;;28.31;49.04;96180.66;2064429;28;20222;-68
2022/08/18 12:03:03;;;;;;;8.95;7.25;;;;;;;28.14;50.15;96180.09;2064817;28;20436;-68
2022/08/18 12:04:27;;;;;;;12.60;7.60;;;;;;;27.56;51.47;96183.50;2064974;28;20547;-68
2022/08/18 12:05:51;;;;;;;10.43;7.97;;;;;;;27.62;51.06;96173.91;2071585;28;20206;-68
2022/08/18 12:07:16;;;;;;;11.15;7.75;;;;;;;26.99;52.00;96163.53;2068051;28;20223;-68
2022/08/18 12:09:00;;;;;;;9.70;7.32;;;;;;;27.57;51.40;96169.09;2064758;28;20191;-68
2022/08/18 12:10:20;;;;;;;8.93;6.43;;;;;;;27.87;50.30;96158.28;2055776;28;20267;-67
2022/08/18 12:11:32;;;;;;;11.88;7.38;;;;;;;27.54;50.14;96164.94;2063780;28;20231;-68
2022/08/18 12:12:48;;;;;;;13.32;7.43;;;;;;;27.64;49.95;96156.63;2065225;28;20210;-67
2022/08/18 12:14:09;;;;;;;10.57;7.00;;;;;;;28.22;49.38;96161.19;2064059;28;20205;-67
2022/08/18 12:15:33;;;;;;;14.85;7.43;;;;;;;27.65;51.26;96155.56;2063730;28;20232;-68
2022/08/18 12:16:49;;;;;;;19.08;9.00;;;;;;;27.85;50.52;96155.81;2064463;28;20225;-68
2022/08/18 12:17:54;;;;;;;40.53;26.92;;;;;;;28.33;49.38;96154.47;2063600;28;20231;-68
2022/08/18 12:18:56;;;;;;;44.53;33.25;;;;;;;28.67;48.58;96159.13;2064918;28;20234;-68
2022/08/18 12:19:58;;;;;;;25.33;12.90;;;;;;;28.93;47.36;96156.84;2064092;28;20203;-67
2022/08/18 12:21:00;;;;;;;8.32;7.15;;;;;;;28.98;46.74;96160.59;2065018;28;20198;-66
2022/08/18 12:22:14;;;;;;;11.13;7.47;;;;;;;28.88;46.80;96170.03;2064106;28;20242;-66
2022/08/18 12:23:17;;;;;;;9.43;6.70;;;;;;;28.88;47.16;96170.03;2063844;28;20226;-66
2022/08/18 12:24:26;;;;;;;8.80;7.13;;;;;;;28.56;48.37;96169.56;2064707;28;20199;-66
2022/08/18 12:25:37;;;;;;;11.07;7.43;;;;;;;28.30;49.04;96171.81;2064467;28;20199;-67
2022/08/18 12:26:39;;;;;;;14.85;7.40;;;;;;;27.82;50.07;96171.44;2063738;28;20247;-67
2022/08/18 12:27:48;;;;;;;10.25;7.60;;;;;;;27.99;49.31;96169.38;2064555;28;20231;-67
2022/08/18 12:28:49;;;;;;;12.25;7.47;;;;;;;28.08;49.61;96167.44;2064935;28;20195;-67
2022/08/18 12:29:55;;;;;;;9.55;7.43;;;;;;;27.74;49.68;96164.34;2064743;28;20203;-67
2022/08/18 12:30:58;;;;;;;11.43;7.40;;;;;;;28.21;49.05;96164.06;2064231;28;20195;-67
2022/08/18 12:32:00;;;;;;;10.93;7.53;;;;;;;27.92;49.23;96165.78;2063167;28;20245;-67
2022/08/18 12:33:02;;;;;;;12.73;7.85;;;;;;;27.21;50.91;96165.31;2064715;28;20553;-67
2022/08/18 12:34:13;;;;;;;10.52;7.57;;;;;;;27.80;49.85;96168.13;2064654;28;20253;-67
2022/08/18 12:35:15;;;;;;;14.45;8.50;;;;;;;28.38;48.71;96162.78;2064862;28;20202;-67
2022/08/18 12:36:22;;;;;;;11.32;7.40;;;;;;;28.84;47.84;96166.91;2063806;28;20203;-66
2022/08/18 12:37:29;;;;;;;11.07;7.40;;;;;;;29.39;46.47;96161.69;2064237;28;20213;-66
2022/08/18 12:38:51;;;;;;;9.48;6.32;;;;;;;29.64;46.90;96167.38;2064489;28;20222;-67
2022/08/18 12:39:59;;;;;;;8.33;6.57;;;;;;;29.56;45.70;96150.59;2064760;28;20199;-67
2022/08/18 12:41:00;;;;;;;8.93;7.27;;;;;;;29.19;45.95;96156.16;2063772;28;20479;-66
2022/08/18 12:42:03;;;;;;;7.47;6.20;;;;;;;28.79;47.46;96159.41;2064363;28;20464;-67
2022/08/18 12:43:06;;;;;;;12.60;7.10;;;;;;;28.96;46.73;96162.66;2064740;28;20436;-67
2022/08/18 12:44:08;;;;;;;10.85;6.65;;;;;;;28.28;48.05;96156.91;2063413;28;20241;-67
2022/08/18 12:45:13;;;;;;;10.82;7.13;;;;;;;27.95;49.09;96160.06;2061710;28;20206;-66
2022/08/18 12:46:17;;;;;;;9.90;6.88;;;;;;;28.21;48.29;96154.13;2064203;28;20207;-67
2022/08/18 12:47:21;;;;;;;13.07;6.67;;;;;;;28.45;47.74;96155.59;2064740;28;20677;-67
2022/08/18 12:48:23;;;;;;;7.85;5.70;;;;;;;28.35;47.22;96160.47;2064069;28;20437;-67
2022/08/18 12:49:26;;;;;;;9.68;6.63;;;;;;;28.63;46.54;96151.63;2064536;28;20226;-67
2022/08/18 12:50:30;;;;;;;9.80;5.80;;;;;;;29.26;45.27;96150.84;2072165;28;20284;-67
2022/08/18 12:51:54;;;;;;;5.80;5.17;;;;;;;29.97;43.34;96145.19;2068623;28;20223;-67
2022/08/18 12:52:56;;;;;;;9.70;5.40;;;;;;;29.78;43.06;96144.06;2064560;28;20768;-67
2022/08/18 12:53:58;;;;;;;6.68;5.75;;;;;;;29.53;43.41;96149.13;2072055;28;20202;-67
2022/08/18 12:55:00;;;;;;;7.60;4.77;;;;;;;30.03;42.75;96151.63;2071780;28;20293;-67
2022/08/18 12:56:23;;;;;;;7.10;4.70;;;;;;;30.32;41.28;96140.69;2064442;28;20552;-67
2022/08/18 12:57:26;;;;;;;5.40;4.80;;;;;;;30.89;40.19;96146.50;2063960;28;20467;-67
2022/08/18 12:58:49;;;;;;;5.50;4.07;;;;;;;30.93;39.35;96145.03;2057883;28;20513;-67
2022/08/18 12:59:51;;;;;;;13.77;5.20;;;;;;;30.99;39.56;96140.69;2060744;28;20425;-67
2022/08/18 13:00:54;;;;;;;6.40;4.47;;;;;;;31.26;39.86;96139.63;2071906;28;20562;-67
2022/08/18 13:01:58;;;;;;;8.23;4.53;;;;;;;31.01;39.85;96138.59;2070695;28;20462;-67
2022/08/18 13:03:00;;;;;;;7.30;5.20;;;;;;;30.59;39.82;96128.91;2064481;28;20772;-67
2022/08/18 13:04:03;;;;;;;8.87;4.90;;;;;;;30.39;40.03;96131.56;2064437;28;20436;-67
2022/08/18 13:05:14;;;;;;;8.53;4.57;;;;;;;30.34;41.14;96117.91;2063103;28;20428;-67
2022/08/18 13:06:16;;;;;;;5.07;4.40;;;;;;;29.87;41.64;96125.06;2062877;28;20465;-67
2022/08/18 13:07:18;;;;;;;7.00;4.70;;;;;;;29.18;44.22;96116.91;2063827;28;20429;-67
2022/08/18 13:08:23;;;;;;;5.57;4.77;;;;;;;29.59;43.44;96123.31;2071349;28;20443;-67
2022/08/18 13:09:35;;;;;;;8.50;5.60;;;;;;;30.06;42.94;96107.31;2070249;28;20431;-67
2022/08/18 13:10:54;;;;;;;9.80;5.23;;;;;;;29.79;42.70;96099.16;2064173;28;20498;-67
2022/08/18 13:11:58;;;;;;;7.50;4.70;;;;;;;30.29;41.94;96110.44;2063562;28;20464;-67
2022/08/18 13:13:00;;;;;;;6.10;4.30;;;;;;;30.81;41.04;96114.41;2064354;28;20417;-67
2022/08/18 13:14:02;;;;;;;6.03;4.50;;;;;;;30.67;40.84;96094.72;2064182;28;20460;-66
2022/08/18 13:15:10;;;;;;;10.23;4.93;;;;;;;30.72;40.59;96106.53;2063811;28;20433;-67
2022/08/18 13:16:13;;;;;;;5.30;4.50;;;;;;;31.11;39.98;96093.22;2069505;28;20424;-66
2022/08/18 13:17:37;;;;;;;9.63;3.80;;;;;;;30.98;38.75;96096.72;2067906;28;20457;-66
2022/08/18 13:18:45;;;;;;;8.30;4.90;;;;;;;29.52;41.63;96096.38;2063822;28;20425;-67
2022/08/18 13:19:47;;;;;;;5.67;4.33;;;;;;;30.15;41.59;96089.94;2064290;28;20432;-68
2022/08/18 13:20:50;;;;;;;8.63;6.33;;;;;;;30.45;41.94;96093.06;2063620;28;20433;-68
2022/08/18 13:21:52;;;;;;;6.93;5.00;;;;;;;30.67;41.12;96082.09;2062654;28;20472;-67
2022/08/18 13:22:57;;;;;;;7.33;4.50;;;;;;;30.69;41.05;96084.56;2064429;28;20817;-67
2022/08/18 13:23:59;;;;;;;9.57;5.23;;;;;;;30.87;40.58;96081.25;2064291;28;20498;-66
2022/08/18 13:25:02;;;;;;;7.53;5.27;;;;;;;30.36;41.49;96077.31;2064227;28;20436;-67
2022/08/18 13:26:07;;;;;;;6.30;4.60;;;;;;;30.81;41.39;96082.88;2064227;28;20582;-67
2022/08/18 13:27:09;;;;;;;7.03;4.90;;;;;;;30.87;40.18;96071.28;2063288;28;20472;-67
2022/08/18 13:28:23;;;;;;;6.50;5.30;;;;;;;31.05;39.71;96081.38;2064211;28;20467;-68
2022/08/18 13:29:30;;;;;;;8.33;5.13;;;;;;;30.75;40.60;96065.72;2064217;28;20429;-68
2022/08/18 13:30:32;;;;;;;8.93;4.87;;;;;;;30.57;40.64;96070.91;2064174;28;20433;-67
2022/08/18 13:31:37;;;;;;;8.50;4.70;;;;;;;30.55;41.27;96064.88;2063527;28;20471;-67
2022/08/18 13:32:39;;;;;;;7.10;5.47;;;;;;;30.50;41.26;96060.16;2063566;28;20417;-68
2022/08/18 13:34:00;;;;;;;8.33;5.50;;;;;;;29.88;42.40;96063.00;2063500;28;20907;-68
2022/08/18 13:35:05;;;;;;;8.40;5.13;;;;;;;30.46;41.95;96065.09;2064035;28;20524;-68
2022/08/18 13:36:14;;;;;;;6.87;5.67;;;;;;;31.38;40.50;96074.25;2063484;28;20908;-68
2022/08/18 13:37:15;;;;;;;7.70;5.20;;;;;;;31.26;40.38;96057.91;2063960;28;20432;-68
2022/08/18 13:38:23;;;;;;;5.47;4.90;;;;;;;30.92;40.52;96074.16;2064263;28;20483;-68
2022/08/18 13:39:28;;;;;;;6.60;5.00;;;;;;;30.13;41.92;96071.31;2063734;28;20460;-68
2022/08/18 13:40:36;;;;;;;10.90;7.73;;;;;;;30.01;42.85;96077.50;2063558;28;20510;-69
2022/08/18 13:41:48;;;;;;;10.00;5.70;;;;;;;29.72;42.97;96066.03;2056229;28;20465;-69
2022/08/18 13:42:50;;;;;;;6.53;5.13;;;;;;;29.44;43.82;96075.88;2063365;28;20453;-68
2022/08/18 13:43:51;;;;;;;11.77;8.93;;;;;;;29.53;43.53;96071.16;2062691;28;20428;-68
2022/08/18 13:44:58;;;;;;;12.03;10.10;;;;;;;29.80;43.24;96079.28;2063805;28;20452;-69
2022/08/18 13:46:20;;;;;;;10.97;5.77;;;;;;;29.38;44.21;96059.72;2063216;28;20511;-67
2022/08/18 13:47:32;;;;;;;8.00;5.70;;;;;;;29.60;44.17;96079.25;2064016;28;20444;-67
2022/08/18 13:48:38;;;;;;;10.20;5.40;;;;;;;30.16;43.30;96071.91;2063329;28;20515;-68
2022/08/18 13:49:42;;;;;;;7.57;4.93;;;;;;;29.72;43.54;96071.41;2063896;28;20899;-68
2022/08/18 13:51:00;;;;;;;7.80;5.27;;;;;;;29.62;43.40;96072.63;2063947;28;20467;-68
2022/08/18 13:52:02;;;;;;;5.33;4.80;;;;;;;29.48;43.43;96079.84;2062254;28;20460;-68
2022/08/18 13:53:20;;;;;;;9.23;5.07;;;;;;;29.04;44.37;96083.75;2063796;28;20440;-68
2022/08/18 13:54:25;;;;;;;6.47;4.77;;;;;;;29.18;44.25;96079.28;2064056;28;20575;-68
2022/08/18 13:55:34;;;;;;;10.40;5.40;;;;;;;28.75;44.27;96082.94;2063779;28;20487;-68
2022/08/18 13:56:35;;;;;;;6.03;4.50;;;;;;;28.67;44.81;96073.19;2063207;28;20464;-68
2022/08/18 13:57:46;;;;;;;7.43;5.40;;;;;;;28.69;44.37;96086.41;2063965;28;20424;-67
2022/08/18 13:58:50;;;;;;;5.80;4.97;;;;;;;28.90;44.78;96088.22;2064396;28;20433;-67
2022/08/18 13:59:54;;;;;;;6.30;5.13;;;;;;;28.95;44.36;96087.59;2064017;28;20496;-67
2022/08/18 14:00:59;;;;;;;7.73;4.77;;;;;;;28.99;44.38;96086.19;2064283;28;20433;-68
2022/08/18 14:02:20;;;;;;;6.03;4.90;;;;;;;29.57;43.94;96087.72;2063634;28;20491;-68
2022/08/18 14:03:28;;;;;;;8.93;5.33;;;;;;;29.87;43.53;96090.91;2069674;28;20795;-68
2022/08/18 14:04:43;;;;;;;12.03;5.50;;;;;;;30.35;42.56;96079.19;2069222;28;20455;-68
2022/08/18 14:05:47;;;;;;;6.70;5.17;;;;;;;30.57;42.17;96073.59;2064384;28;20429;-68
2022/08/18 14:06:54;;;;;;;9.50;5.30;;;;;;;29.87;43.25;96076.63;2062090;28;20468;-68
2022/08/18 14:07:59;;;;;;;6.87;5.20;;;;;;;29.65;44.05;96082.16;2063938;28;20432;-68
2022/08/18 14:09:01;;;;;;;6.40;5.60;;;;;;;29.48;43.94;96084.38;2064075;28;20785;-68
2022/08/18 14:10:20;;;;;;;8.93;5.10;;;;;;;29.46;44.54;96070.31;2064153;28;21111;-68
2022/08/18 14:11:31;;;;;;;9.80;6.07;;;;;;;29.25;44.21;96077.41;2063326;28;20448;-68
2022/08/18 14:12:36;;;;;;;7.43;5.47;;;;;;;29.14;44.99;96078.84;2063023;28;20424;-68
2022/08/18 14:13:40;;;;;;;7.70;5.40;;;;;;;29.06;45.32;96072.78;2063852;28;20531;-68
2022/08/18 14:14:44;;;;;;;12.30;6.90;;;;;;;29.07;45.91;96086.03;2063911;28;20490;-68
2022/08/18 14:15:48;;;;;;;21.13;13.27;;;;;;;28.84;45.55;96072.88;2063972;28;20428;-68
2022/08/18 14:16:54;;;;;;;26.07;16.80;;;;;;;28.72;46.03;96075.31;2070305;28;20471;-68
2022/08/18 14:17:57;;;;;;;64.23;41.27;;;;;;;28.86;45.41;96075.38;2069135;28;20520;-68
2022/08/18 14:27:22;;;;;;;187.47;93.53;;;;;;;28.64;46.24;96083.47;2063709;28;20437;-68
2022/08/18 14:28:28;;;;;;;92.17;40.17;;;;;;;28.57;45.79;96088.78;2063017;28;20436;-68
2022/08/18 14:29:30;;;;;;;26.13;13.00;;;;;;;28.56;45.67;96084.44;2064166;28;20475;-68
2022/08/18 14:30:48;;;;;;;20.43;11.20;;;;;;;28.32;46.49;96083.84;2063629;28;20433;-68
2022/08/18 14:31:55;;;;;;;22.13;12.80;;;;;;;27.78;47.92;96087.88;2063331;28;20824;-68
2022/08/18 14:32:58;;;;;;;13.77;9.17;;;;;;;27.72;48.05;96083.28;2064304;28;20433;-68
2022/08/18 14:33:59;;;;;;;10.00;6.70;;;;;;;27.85;47.69;96079.88;2064145;28;20550;-68
2022/08/18 14:35:07;;;;;;;8.20;6.10;;;;;;;27.06;48.90;96081.44;2064239;28;20501;-68
2022/08/18 14:36:31;;;;;;;10.07;6.07;;;;;;;27.30;49.14;96082.97;2062941;28;20440;-68
2022/08/18 14:37:34;;;;;;;8.75;5.63;;;;;;;27.15;49.59;96084.84;2063367;28;20425;-69
2022/08/18 14:38:37;;;;;;;7.70;5.70;;;;;;;26.87;50.55;96086.31;2063723;28;20833;-68
2022/08/18 14:39:39;;;;;;;8.17;6.03;;;;;;;26.98;49.83;96079.69;2064085;28;20936;-68
2022/08/18 14:40:43;;;;;;;12.10;6.50;;;;;;;27.38;48.95;96084.72;2061905;28;20435;-68
2022/08/18 14:41:45;;;;;;;10.83;5.87;;;;;;;26.82;50.36;96074.50;2062606;28;20226;-69
2022/08/18 14:42:57;;;;;;;9.50;5.80;;;;;;;26.88;50.68;96085.31;2063477;28;20460;-68